Time;durP1;ratioP1;P1;durP2;ratioP2;P2;SDS_P1;SDS_P2;PMS_P1;PMS_P2;Temp;Humidity;BMP_temperature;BMP_pressure;BME280_temperature;BME280_humidity;BME280_pressure;Samples;Min_cycle;Max_cycle;Signal;HPM_P1;HPM_P2
2021/10/17 00:00:20;;;;;;;21.83;16.25;;;;;;;;;;10302137;28;20083;-65
2021/10/17 00:05:20;;;;;;;18.50;16.55;;;;;;;;;;10303100;28;20067;-65
2021/10/17 00:10:20;;;;;;;21.77;16.27;;;;;;;;;;10304572;28;20071;-65
2021/10/17 00:15:19;;;;;;;21.95;16.98;;;;;;;;;;10304261;28;20071;-64
2021/10/17 00:20:19;;;;;;;40.33;32.00;;;;;;;;;;10305652;28;20082;-65
2021/10/17 00:25:19;;;;;;;46.13;36.78;;;;;;;;;;10298260;28;20073;-64
2021/10/17 00:30:17;;;;;;;24.00;20.38;;;;;;;;;;10292151;28;20067;-64
2021/10/17 00:35:16;;;;;;;22.95;15.48;;;;;;;;;;10290550;28;20064;-65
2021/10/17 00:40:15;;;;;;;22.05;19.63;;;;;;;;;;10294547;28;20064;-64
2021/10/17 00:45:15;;;;;;;21.80;17.98;;;;;;;;;;10296178;28;20063;-65
2021/10/17 00:50:14;;;;;;;17.45;15.10;;;;;;;;;;10298641;28;20073;-64
2021/10/17 00:55:13;;;;;;;21.42;16.17;;;;;;;;;;10293441;28;20482;-64
2021/10/17 01:00:13;;;;;;;19.00;15.13;;;;;;;;;;10297236;28;20056;-64
2021/10/17 01:05:15;;;;;;;21.23;14.48;;;;;;;;;;10296132;28;20068;-64
2021/10/17 01:10:13;;;;;;;17.27;14.85;;;;;;;;;;10300673;28;20099;-64
2021/10/17 01:15:12;;;;;;;17.17;14.77;;;;;;;;;;10305514;28;20077;-65
2021/10/17 01:20:17;;;;;;;18.63;15.20;;;;;;;;;;10314520;28;20103;-64
2021/10/17 01:25:17;;;;;;;22.48;16.20;;;;;;;;;;10314704;28;20055;-65
2021/10/17 01:30:17;;;;;;;18.67;15.70;;;;;;;;;;10310847;28;20083;-64
2021/10/17 01:35:20;;;;;;;23.70;15.82;;;;;;;;;;10320046;28;20048;-65
2021/10/17 01:40:18;;;;;;;19.50;15.18;;;;;;;;;;10303266;28;20306;-65
2021/10/17 01:45:17;;;;;;;17.63;15.00;;;;;;;;;;10304733;28;20071;-65
2021/10/17 01:50:16;;;;;;;19.73;15.65;;;;;;;;;;10312892;28;20072;-65
2021/10/17 01:55:16;;;;;;;20.00;16.25;;;;;;;;;;10313812;28;20509;-65
2021/10/17 02:00:15;;;;;;;19.02;16.30;;;;;;;;;;10308215;28;20075;-65
2021/10/17 02:05:17;;;;;;;22.70;16.52;;;;;;;;;;10297523;28;20059;-65
2021/10/17 02:10:21;;;;;;;29.40;20.92;;;;;;;;;;10280487;28;20095;-65
2021/10/17 02:15:21;;;;;;;24.65;18.10;;;;;;;;;;10304371;28;20064;-64
2021/10/17 02:20:20;;;;;;;23.70;17.58;;;;;;;;;;10308574;28;20040;-64
2021/10/17 02:25:18;;;;;;;22.92;17.88;;;;;;;;;;10294841;28;20040;-65
2021/10/17 02:30:21;;;;;;;25.42;17.92;;;;;;;;;;10290879;28;20110;-64
2021/10/17 02:35:30;;;;;;;21.30;17.67;;;;;;;;;;10250159;28;20096;-65
2021/10/17 02:40:28;;;;;;;26.48;19.13;;;;;;;;;;10297505;28;20136;-65
2021/10/17 02:45:29;;;;;;;28.35;20.17;;;;;;;;;;10297654;28;20088;-65
2021/10/17 02:50:28;;;;;;;22.90;18.00;;;;;;;;;;10286259;28;20092;-65
2021/10/17 02:55:26;;;;;;;23.48;18.13;;;;;;;;;;10298165;28;20144;-65
2021/10/17 03:00:24;;;;;;;24.27;20.38;;;;;;;;;;10298799;28;20040;-64
2021/10/17 03:05:26;;;;;;;28.27;20.75;;;;;;;;;;10297864;28;20095;-65
2021/10/17 03:10:25;;;;;;;37.42;25.42;;;;;;;;;;10299796;28;20521;-65
2021/10/17 03:15:24;;;;;;;33.08;22.98;;;;;;;;;;10296397;28;20155;-65
2021/10/17 03:20:22;;;;;;;30.58;23.10;;;;;;;;;;10302750;28;20075;-65
2021/10/17 03:25:22;;;;;;;33.20;23.77;;;;;;;;;;10301817;28;20087;-65
2021/10/17 03:30:23;;;;;;;29.05;21.67;;;;;;;;;;10303903;28;20082;-65
2021/10/17 03:35:22;;;;;;;30.67;23.63;;;;;;;;;;10306237;28;20425;-65
2021/10/17 03:40:22;;;;;;;37.45;25.05;;;;;;;;;;10307704;28;20076;-65
2021/10/17 03:45:21;;;;;;;34.53;23.50;;;;;;;;;;10304281;28;20041;-65
2021/10/17 03:50:19;;;;;;;25.92;21.20;;;;;;;;;;10304188;28;20529;-65
2021/10/17 03:55:17;;;;;;;26.30;20.55;;;;;;;;;;10303266;28;20069;-65
2021/10/17 04:00:21;;;;;;;25.38;21.40;;;;;;;;;;10301780;28;20072;-64
2021/10/17 04:05:26;;;;;;;25.30;22.10;;;;;;;;;;10306589;28;20103;-65
2021/10/17 04:10:25;;;;;;;30.13;23.08;;;;;;;;;;10306148;28;20490;-65
2021/10/17 04:15:25;;;;;;;31.83;22.73;;;;;;;;;;10294638;28;20389;-65
2021/10/17 04:20:24;;;;;;;23.90;19.38;;;;;;;;;;10277695;28;20060;-66
2021/10/17 04:25:22;;;;;;;27.75;23.60;;;;;;;;;;10307570;28;20077;-65
2021/10/17 04:30:21;;;;;;;30.65;25.42;;;;;;;;;;10302602;28;20068;-65
2021/10/17 04:35:21;;;;;;;32.92;24.80;;;;;;;;;;10302320;28;20052;-64
2021/10/17 04:40:21;;;;;;;24.60;20.63;;;;;;;;;;10303084;28;20072;-66
2021/10/17 04:45:20;;;;;;;26.02;21.40;;;;;;;;;;10302014;28;20072;-65
2021/10/17 04:50:22;;;;;;;25.02;20.45;;;;;;;;;;10300453;28;20075;-65
2021/10/17 04:55:20;;;;;;;28.98;22.48;;;;;;;;;;10292783;28;20072;-65
2021/10/17 05:00:19;;;;;;;29.83;23.63;;;;;;;;;;10298653;28;20075;-66
2021/10/17 05:05:25;;;;;;;34.55;29.67;;;;;;;;;;10273754;28;20084;-66
2021/10/17 05:10:27;;;;;;;41.30;31.70;;;;;;;;;;10302325;28;20087;-66
2021/10/17 05:15:26;;;;;;;35.25;27.40;;;;;;;;;;10289917;28;20037;-66
2021/10/17 05:20:26;;;;;;;33.33;28.88;;;;;;;;;;10288047;28;20544;-66
2021/10/17 05:25:27;;;;;;;35.70;27.08;;;;;;;;;;10298936;28;20051;-65
2021/10/17 05:30:26;;;;;;;28.95;25.15;;;;;;;;;;10299828;28;20498;-66
2021/10/17 05:35:26;;;;;;;34.65;29.15;;;;;;;;;;10273824;28;20551;-66
2021/10/17 05:40:25;;;;;;;36.70;30.70;;;;;;;;;;10295863;28;20041;-66
2021/10/17 05:45:23;;;;;;;32.78;26.35;;;;;;;;;;10275230;28;20076;-66
2021/10/17 05:50:22;;;;;;;35.45;28.92;;;;;;;;;;10301278;28;20077;-65
2021/10/17 05:55:22;;;;;;;33.30;26.95;;;;;;;;;;10298815;28;20419;-66
2021/10/17 06:00:21;;;;;;;36.08;26.90;;;;;;;;;;10297661;28;20055;-65
2021/10/17 06:05:24;;;;;;;32.83;27.60;;;;;;;;;;10287729;28;20072;-66
2021/10/17 06:10:25;;;;;;;56.97;43.28;;;;;;;;;;10282123;28;20536;-65
2021/10/17 06:15:23;;;;;;;69.50;52.60;;;;;;;;;;10281618;28;20080;-66
2021/10/17 06:20:22;;;;;;;40.17;32.42;;;;;;;;;;10280464;28;20072;-66
2021/10/17 06:25:20;;;;;;;39.15;30.15;;;;;;;;;;10286680;28;20076;-68
2021/10/17 06:30:20;;;;;;;73.03;49.28;;;;;;;;;;10286634;28;20084;-66
2021/10/17 06:35:18;;;;;;;44.63;34.30;;;;;;;;;;10265368;28;20132;-65
2021/10/17 06:40:17;;;;;;;34.25;28.02;;;;;;;;;;10281969;28;20076;-68
2021/10/17 06:45:15;;;;;;;41.97;35.05;;;;;;;;;;10296163;28;20068;-67
2021/10/17 06:50:17;;;;;;;36.75;31.10;;;;;;;;;;10308793;28;20080;-67
2021/10/17 06:55:16;;;;;;;35.85;28.70;;;;;;;;;;10315909;28;20064;-67
2021/10/17 07:00:15;;;;;;;46.13;34.33;;;;;;;;;;10314457;28;20067;-68
2021/10/17 07:05:18;;;;;;;39.03;34.13;;;;;;;;;;10297619;28;20075;-67
2021/10/17 07:10:17;;;;;;;58.13;44.75;;;;;;;;;;10306737;28;20083;-66
2021/10/17 07:15:35;;;;;;;48.40;39.15;;;;;;;;;;10306277;28;20099;-67
2021/10/17 07:20:34;;;;;;;39.83;31.77;;;;;;;;;;10281234;28;20305;-67
2021/10/17 07:25:33;;;;;;;38.97;31.70;;;;;;;;;;10309143;28;20079;-67
2021/10/17 07:30:31;;;;;;;37.35;29.38;;;;;;;;;;10303691;28;20092;-67
2021/10/17 07:35:33;;;;;;;33.90;26.30;;;;;;;;;;10303577;28;20080;-66
2021/10/17 07:40:33;;;;;;;58.58;40.30;;;;;;;;;;10301174;28;20080;-67
2021/10/17 07:45:32;;;;;;;31.98;25.05;;;;;;;;;;10301537;28;20071;-66
2021/10/17 07:50:31;;;;;;;48.63;40.42;;;;;;;;;;10302939;28;20532;-67
2021/10/17 07:55:31;;;;;;;73.80;51.53;;;;;;;;;;10316637;28;20083;-66
2021/10/17 08:00:33;;;;;;;69.43;49.47;;;;;;;;;;10318201;28;20048;-67
2021/10/17 08:06:09;;;;;;;38.47;31.13;;;;;;;;;;10363794;28;20211;-67
2021/10/17 08:11:08;;;;;;;33.90;25.63;;;;;;;;;;10294407;28;20092;-67
2021/10/17 08:16:09;;;;;;;39.78;31.45;;;;;;;;;;10309577;28;20040;-67
2021/10/17 08:21:14;;;;;;;36.35;28.88;;;;;;;;;;10315474;28;20078;-67
2021/10/17 08:26:20;;;;;;;39.08;31.08;;;;;;;;;;10309267;28;20037;-66
2021/10/17 08:31:20;;;;;;;43.10;33.75;;;;;;;;;;10315661;28;20489;-66
2021/10/17 08:36:19;;;;;;;38.42;29.17;;;;;;;;;;10316210;28;20041;-67
2021/10/17 08:41:40;;;;;;;45.08;36.53;;;;;;;;;;10310104;28;20080;-67
2021/10/17 08:46:45;;;;;;;85.10;45.08;;;;;;;;;;10303242;28;20106;-67
2021/10/17 08:51:46;;;;;;;53.78;38.67;;;;;;;;;;10291188;28;20072;-67
2021/10/17 08:56:44;;;;;;;96.82;83.60;;;;;;;;;;10291958;28;20587;-67
2021/10/17 09:01:49;;;;;;;45.85;31.08;;;;;;;;;;10294620;28;20072;-67
2021/10/17 09:06:50;;;;;;;43.55;32.08;;;;;;;;;;10297031;28;20731;-68
2021/10/17 09:11:50;;;;;;;37.83;28.35;;;;;;;;;;10285667;28;20091;-67
2021/10/17 09:16:51;;;;;;;46.53;36.17;;;;;;;;;;10276081;28;20075;-66
2021/10/17 09:21:57;;;;;;;73.70;51.55;;;;;;;;;;10273054;28;20075;-67
2021/10/17 09:27:08;;;;;;;50.88;38.30;;;;;;;;;;10281956;28;20134;-65
2021/10/17 09:32:12;;;;;;;39.55;30.98;;;;;;;;;;10284392;28;20075;-66
2021/10/17 09:37:12;;;;;;;41.67;30.20;;;;;;;;;;10293918;28;20757;-65
2021/10/17 09:42:30;;;;;;;38.65;30.75;;;;;;;;;;10292816;28;20071;-66
2021/10/17 09:47:42;;;;;;;44.95;32.83;;;;;;;;;;10295608;28;20633;-66
2021/10/17 09:52:40;;;;;;;31.85;26.88;;;;;;;;;;10297737;28;20502;-66
2021/10/17 09:57:38;;;;;;;35.75;29.65;;;;;;;;;;10296356;28;20143;-66
2021/10/17 10:02:36;;;;;;;36.00;28.67;;;;;;;;;;10287419;28;20079;-66
2021/10/17 10:07:36;;;;;;;82.32;64.97;;;;;;;;;;10297551;28;20072;-66
2021/10/17 10:12:35;;;;;;;48.47;38.50;;;;;;;;;;10299164;28;20317;-67
2021/10/17 10:17:34;;;;;;;41.42;35.80;;;;;;;;;;10292810;28;20597;-67
2021/10/17 10:22:32;;;;;;;44.78;33.05;;;;;;;;;;10288847;28;20143;-67
2021/10/17 10:27:32;;;;;;;40.95;32.20;;;;;;;;;;10296008;28;20080;-68
2021/10/17 10:32:30;;;;;;;33.35;27.27;;;;;;;;;;10295284;28;20083;-67
2021/10/17 10:37:30;;;;;;;38.60;28.35;;;;;;;;;;10268124;28;20484;-66
2021/10/17 10:42:34;;;;;;;34.70;25.67;;;;;;;;;;10291174;28;20072;-67
2021/10/17 10:47:33;;;;;;;34.83;30.88;;;;;;;;;;10294090;28;20464;-67
2021/10/17 10:52:45;;;;;;;35.05;28.88;;;;;;;;;;10296380;28;20090;-66
2021/10/17 10:57:45;;;;;;;30.00;24.27;;;;;;;;;;10300473;28;20072;-66
2021/10/17 11:02:58;;;;;;;32.63;26.50;;;;;;;;;;10264567;28;20064;-67
2021/10/17 11:08:11;;;;;;;32.85;26.95;;;;;;;;;;10281956;28;20520;-67
2021/10/17 11:13:11;;;;;;;24.33;21.27;;;;;;;;;;10286524;28;20083;-67
2021/10/17 11:18:12;;;;;;;31.67;24.63;;;;;;;;;;10290071;28;20532;-65
2021/10/17 11:23:19;;;;;;;27.30;22.20;;;;;;;;;;10292418;28;20064;-66
2021/10/17 11:28:17;;;;;;;29.55;23.23;;;;;;;;;;10296116;28;20070;-65
2021/10/17 11:33:20;;;;;;;31.83;24.00;;;;;;;;;;10295333;28;20076;-66
2021/10/17 11:38:20;;;;;;;23.77;21.05;;;;;;;;;;10298104;28;20083;-66
2021/10/17 11:43:19;;;;;;;27.55;21.13;;;;;;;;;;10306323;28;20430;-65
2021/10/17 11:48:17;;;;;;;29.38;21.85;;;;;;;;;;10303416;28;20076;-65
2021/10/17 11:53:17;;;;;;;28.85;22.83;;;;;;;;;;10304987;28;20060;-66
2021/10/17 11:58:18;;;;;;;33.58;26.70;;;;;;;;;;10303756;28;20064;-66
2021/10/17 12:03:17;;;;;;;28.25;25.08;;;;;;;;;;10303668;28;20437;-65
2021/10/17 12:08:19;;;;;;;31.23;25.20;;;;;;;;;;10303030;28;20490;-65
2021/10/17 12:13:25;;;;;;;23.63;20.27;;;;;;;;;;10296060;28;20079;-66
2021/10/17 12:18:23;;;;;;;34.83;29.27;;;;;;;;;;10306024;28;20090;-68
2021/10/17 12:23:21;;;;;;;28.63;23.23;;;;;;;;;;10308110;28;20076;-66
2021/10/17 12:29:01;;;;;;;26.23;22.10;;;;;;;;;;10303996;28;20553;-66
2021/10/17 12:34:03;;;;;;;30.85;23.73;;;;;;;;;;10302254;28;20068;-65
2021/10/17 12:39:03;;;;;;;25.63;21.85;;;;;;;;;;10299752;28;20068;-65
2021/10/17 12:44:02;;;;;;;30.73;27.45;;;;;;;;;;10295441;28;20072;-65
2021/10/17 12:49:09;;;;;;;19.80;17.45;;;;;;;;;;10302366;28;20065;-66
2021/10/17 12:54:08;;;;;;;26.65;21.83;;;;;;;;;;10301196;28;20465;-67
2021/10/17 12:59:08;;;;;;;81.53;54.80;;;;;;;;;;10291237;28;20068;-67
2021/10/17 13:04:12;;;;;;;29.95;26.67;;;;;;;;;;10300776;28;20071;-66
2021/10/17 13:09:10;;;;;;;25.83;21.30;;;;;;;;;;10305090;28;20076;-66
2021/10/17 13:14:09;;;;;;;23.25;19.98;;;;;;;;;;10300365;28;20477;-65
2021/10/17 13:19:08;;;;;;;20.10;16.90;;;;;;;;;;10300960;28;20061;-65
2021/10/17 13:24:07;;;;;;;26.83;18.85;;;;;;;;;;10297125;28;20060;-66
2021/10/17 13:29:06;;;;;;;16.77;15.05;;;;;;;;;;10295863;28;20528;-65
2021/10/17 13:34:04;;;;;;;40.47;27.48;;;;;;;;;;10298780;28;20464;-64
2021/10/17 13:39:02;;;;;;;17.95;15.50;;;;;;;;;;10302184;28;20071;-65
2021/10/17 13:44:02;;;;;;;18.80;14.98;;;;;;;;;;10293864;28;20073;-64
2021/10/17 13:49:00;;;;;;;17.95;15.30;;;;;;;;;;10291938;28;20068;-65
2021/10/17 13:54:00;;;;;;;14.77;13.30;;;;;;;;;;10289609;28;20619;-65
2021/10/17 13:58:58;;;;;;;21.02;14.95;;;;;;;;;;10294585;28;20474;-66
2021/10/17 14:03:59;;;;;;;26.98;23.80;;;;;;;;;;10308565;28;20150;-64
2021/10/17 14:09:00;;;;;;;33.35;28.42;;;;;;;;;;10288075;28;20069;-62
2021/10/17 14:13:58;;;;;;;30.00;24.98;;;;;;;;;;10284426;28;20072;-67
2021/10/17 14:18:58;;;;;;;27.83;24.98;;;;;;;;;;10294044;28;20079;-63
2021/10/17 14:23:57;;;;;;;50.25;44.28;;;;;;;;;;10284418;28;20072;-65
2021/10/17 14:28:55;;;;;;;28.70;24.92;;;;;;;;;;10280725;28;20464;-64
2021/10/17 14:33:58;;;;;;;25.10;20.35;;;;;;;;;;10274221;28;20387;-64
2021/10/17 14:38:56;;;;;;;24.48;20.13;;;;;;;;;;10283779;28;20072;-65
2021/10/17 14:43:54;;;;;;;21.95;19.65;;;;;;;;;;10287595;28;20064;-65
2021/10/17 14:48:55;;;;;;;31.42;23.90;;;;;;;;;;10295684;28;20119;-67
2021/10/17 14:53:55;;;;;;;25.33;19.20;;;;;;;;;;10296286;28;20064;-66
2021/10/17 14:58:54;;;;;;;22.77;16.95;;;;;;;;;;10296200;28;20080;-67
2021/10/17 15:03:53;;;;;;;38.83;25.48;;;;;;;;;;10287529;28;20081;-62
2021/10/17 15:08:51;;;;;;;18.45;14.80;;;;;;;;;;10276227;28;20056;-64
2021/10/17 15:13:51;;;;;;;22.67;18.25;;;;;;;;;;10292476;28;20079;-64
2021/10/17 15:18:49;;;;;;;17.52;14.43;;;;;;;;;;10290835;28;20505;-64
2021/10/17 15:23:47;;;;;;;25.65;22.92;;;;;;;;;;10292847;28;20071;-63
2021/10/17 15:28:46;;;;;;;29.30;24.77;;;;;;;;;;10291967;28;20068;-66
2021/10/17 15:33:45;;;;;;;22.75;18.52;;;;;;;;;;10284888;28;20490;-64
2021/10/17 15:38:44;;;;;;;39.05;28.83;;;;;;;;;;10293461;28;20600;-64
2021/10/17 15:43:42;;;;;;;40.00;34.67;;;;;;;;;;10280646;28;20087;-64
2021/10/17 15:48:40;;;;;;;58.85;41.95;;;;;;;;;;10292382;28;20069;-63
2021/10/17 15:53:40;;;;;;;68.70;47.33;;;;;;;;;;10293796;28;20080;-64
2021/10/17 15:58:38;;;;;;;46.08;33.95;;;;;;;;;;10309859;28;20762;-64
2021/10/17 16:03:37;;;;;;;48.85;33.15;;;;;;;;;;10301290;28;20466;-65
2021/10/17 16:08:35;;;;;;;71.50;45.53;;;;;;;;;;10300770;28;20573;-64
2021/10/17 16:13:35;;;;;;;82.65;53.15;;;;;;;;;;10312324;28;20075;-64
2021/10/17 16:18:33;;;;;;;36.05;26.95;;;;;;;;;;10299387;28;20065;-65
2021/10/17 16:23:32;;;;;;;53.53;37.90;;;;;;;;;;10287972;28;20095;-65
2021/10/17 16:28:33;;;;;;;56.65;40.17;;;;;;;;;;10291016;28;20049;-64
2021/10/17 16:33:34;;;;;;;46.50;39.47;;;;;;;;;;10252391;28;20073;-64
2021/10/17 16:38:32;;;;;;;37.88;31.63;;;;;;;;;;10246694;28;20084;-64
2021/10/17 16:43:31;;;;;;;62.92;37.65;;;;;;;;;;10244639;28;20061;-65
2021/10/17 16:48:29;;;;;;;44.85;36.88;;;;;;;;;;10250412;28;20067;-64
2021/10/17 16:53:31;;;;;;;45.63;35.13;;;;;;;;;;10255737;28;20084;-63
2021/10/17 16:58:29;;;;;;;42.58;37.42;;;;;;;;;;10241672;28;20399;-64
2021/10/17 17:03:27;;;;;;;69.40;55.50;;;;;;;;;;10246729;28;20071;-64
2021/10/17 17:08:26;;;;;;;58.70;48.13;;;;;;;;;;10244178;28;20069;-63
2021/10/17 17:13:25;;;;;;;62.95;48.85;;;;;;;;;;10245570;28;20481;-63
2021/10/17 17:18:24;;;;;;;68.82;56.20;;;;;;;;;;10255017;28;20463;-63
2021/10/17 17:23:22;;;;;;;26.88;23.85;;;;;;;;;;10250219;28;20799;-62
2021/10/17 17:28:21;;;;;;;26.70;22.95;;;;;;;;;;10260478;28;20092;-64
2021/10/17 17:33:21;;;;;;;40.28;32.40;;;;;;;;;;10247326;28;20478;-64
2021/10/17 17:38:20;;;;;;;32.72;27.58;;;;;;;;;;10243861;28;20077;-64
2021/10/17 17:43:18;;;;;;;48.35;40.28;;;;;;;;;;10247689;28;20068;-64
2021/10/17 17:48:17;;;;;;;48.17;42.13;;;;;;;;;;10248231;28;21336;-62
2021/10/17 17:53:17;;;;;;;45.10;39.60;;;;;;;;;;10246447;28;20490;-65
2021/10/17 17:58:16;;;;;;;28.35;24.85;;;;;;;;;;10239973;28;20065;-64
2021/10/17 18:03:15;;;;;;;25.30;21.98;;;;;;;;;;10238212;28;20076;-64
2021/10/17 18:08:13;;;;;;;24.20;21.10;;;;;;;;;;10240541;28;20065;-65
2021/10/17 18:13:13;;;;;;;24.05;18.98;;;;;;;;;;10239529;28;20132;-65
2021/10/17 18:18:11;;;;;;;19.83;16.85;;;;;;;;;;10237432;28;20072;-65
2021/10/17 18:23:09;;;;;;;24.20;21.67;;;;;;;;;;10241422;28;20064;-65
2021/10/17 18:28:08;;;;;;;23.23;20.80;;;;;;;;;;10280311;28;20540;-63
2021/10/17 18:33:08;;;;;;;23.23;18.55;;;;;;;;;;10293014;28;20072;-65
2021/10/17 18:38:07;;;;;;;20.60;18.40;;;;;;;;;;10247085;28;20077;-63
2021/10/17 18:43:07;;;;;;;19.27;16.38;;;;;;;;;;10233315;28;20068;-65
2021/10/17 18:48:05;;;;;;;23.60;16.63;;;;;;;;;;10300139;28;20056;-64
2021/10/17 18:53:05;;;;;;;18.08;15.85;;;;;;;;;;10311379;28;20067;-66
2021/10/17 18:58:03;;;;;;;18.67;16.65;;;;;;;;;;10303738;28;20068;-65
2021/10/17 19:03:02;;;;;;;18.48;16.10;;;;;;;;;;10306336;28;20482;-64
2021/10/17 19:08:03;;;;;;;17.90;16.08;;;;;;;;;;10293897;28;20060;-64
2021/10/17 19:13:02;;;;;;;19.80;17.35;;;;;;;;;;10294703;28;20075;-64
2021/10/17 19:18:04;;;;;;;18.05;16.23;;;;;;;;;;10298316;28;20071;-65
2021/10/17 19:23:03;;;;;;;22.75;16.98;;;;;;;;;;10304717;28;20076;-64
2021/10/17 19:28:03;;;;;;;19.63;17.63;;;;;;;;;;10294765;28;20067;-63
2021/10/17 19:33:01;;;;;;;20.67;18.42;;;;;;;;;;10292406;28;20071;-64
2021/10/17 19:38:00;;;;;;;23.50;20.08;;;;;;;;;;10292580;28;20506;-64
2021/10/17 19:42:58;;;;;;;30.67;23.90;;;;;;;;;;10304310;28;20064;-64
2021/10/17 19:47:58;;;;;;;29.77;25.65;;;;;;;;;;10297454;28;20072;-64
2021/10/17 19:52:57;;;;;;;31.35;26.65;;;;;;;;;;10299457;28;20131;-64
2021/10/17 19:57:55;;;;;;;27.98;23.40;;;;;;;;;;10311514;28;20068;-64
2021/10/17 20:02:54;;;;;;;20.67;18.25;;;;;;;;;;10309037;28;20060;-65
2021/10/17 20:07:56;;;;;;;24.88;20.83;;;;;;;;;;10311062;28;20462;-65
2021/10/17 20:12:54;;;;;;;23.95;19.85;;;;;;;;;;10296459;28;20064;-65
2021/10/17 20:17:53;;;;;;;34.22;26.65;;;;;;;;;;10298589;28;20485;-65
2021/10/17 20:22:51;;;;;;;25.80;21.75;;;;;;;;;;10295312;28;20060;-66
2021/10/17 20:27:51;;;;;;;31.30;24.25;;;;;;;;;;10294969;28;20064;-65
2021/10/17 20:32:50;;;;;;;32.70;26.58;;;;;;;;;;10296863;28;20083;-65
2021/10/17 20:37:53;;;;;;;26.08;21.98;;;;;;;;;;10295248;28;20080;-63
2021/10/17 20:42:53;;;;;;;24.23;21.70;;;;;;;;;;10282218;28;20068;-65
2021/10/17 20:47:52;;;;;;;22.90;20.17;;;;;;;;;;10285516;28;20060;-65
2021/10/17 20:52:50;;;;;;;21.40;19.17;;;;;;;;;;10297477;28;20066;-65
2021/10/17 20:57:49;;;;;;;20.88;17.98;;;;;;;;;;10294514;28;20094;-65
2021/10/17 21:02:50;;;;;;;18.63;16.58;;;;;;;;;;10298689;28;20079;-63
2021/10/17 21:07:48;;;;;;;16.65;14.95;;;;;;;;;;10292585;28;20071;-63
2021/10/17 21:12:47;;;;;;;16.98;15.02;;;;;;;;;;10301896;28;20496;-64
2021/10/17 21:17:45;;;;;;;15.10;13.60;;;;;;;;;;10295561;28;20080;-64
2021/10/17 21:22:45;;;;;;;17.38;14.38;;;;;;;;;;10278486;28;20065;-64
2021/10/17 21:27:43;;;;;;;13.65;12.25;;;;;;;;;;10294887;28;20060;-64
2021/10/17 21:32:41;;;;;;;18.35;13.50;;;;;;;;;;10299265;28;20321;-63
2021/10/17 21:37:39;;;;;;;15.38;11.55;;;;;;;;;;10298352;28;20076;-64
2021/10/17 21:42:39;;;;;;;14.07;12.27;;;;;;;;;;10302848;28;20067;-64
2021/10/17 21:47:37;;;;;;;12.98;11.68;;;;;;;;;;10305926;28;20064;-63
2021/10/17 21:52:36;;;;;;;13.15;11.82;;;;;;;;;;10299854;28;20163;-63
2021/10/17 21:57:35;;;;;;;12.48;11.20;;;;;;;;;;10298851;28;20471;-64
2021/10/17 22:02:35;;;;;;;14.40;11.05;;;;;;;;;;10302044;28;20080;-63
2021/10/17 22:07:33;;;;;;;13.07;11.48;;;;;;;;;;10301214;28;20072;-63
2021/10/17 22:12:31;;;;;;;13.05;11.63;;;;;;;;;;10298129;28;20074;-64
2021/10/17 22:17:30;;;;;;;17.27;14.00;;;;;;;;;;10295016;28;20520;-64
2021/10/17 22:22:29;;;;;;;15.13;13.52;;;;;;;;;;10302272;28;20067;-64
2021/10/17 22:27:28;;;;;;;12.82;11.43;;;;;;;;;;10298920;28;20064;-63
2021/10/17 22:32:26;;;;;;;15.20;13.60;;;;;;;;;;10297734;28;20071;-64
2021/10/17 22:37:25;;;;;;;16.35;14.65;;;;;;;;;;10262342;28;20075;-64
2021/10/17 22:42:24;;;;;;;30.05;25.35;;;;;;;;;;10311422;28;20080;-64
2021/10/17 22:47:23;;;;;;;16.98;14.38;;;;;;;;;;10311918;28;20080;-64
2021/10/17 22:52:21;;;;;;;17.08;12.70;;;;;;;;;;10304421;28;20456;-64
2021/10/17 22:57:19;;;;;;;16.00;12.05;;;;;;;;;;10298389;28;20071;-64
2021/10/17 23:02:19;;;;;;;14.65;13.15;;;;;;;;;;10298528;28;20513;-64
2021/10/17 23:07:18;;;;;;;15.25;13.68;;;;;;;;;;10307236;28;20071;-63
2021/10/17 23:12:16;;;;;;;15.38;12.55;;;;;;;;;;10313806;28;20064;-64
2021/10/17 23:17:16;;;;;;;14.93;13.13;;;;;;;;;;10299445;28;20514;-64
2021/10/17 23:22:16;;;;;;;17.48;12.93;;;;;;;;;;10305313;28;20127;-64
2021/10/17 23:27:14;;;;;;;13.40;11.48;;;;;;;;;;10313377;28;20044;-64
2021/10/17 23:32:13;;;;;;;16.58;13.00;;;;;;;;;;10301260;28;20072;-64
2021/10/17 23:37:11;;;;;;;16.88;11.90;;;;;;;;;;10307291;28;20493;-64
2021/10/17 23:42:12;;;;;;;15.23;12.02;;;;;;;;;;10308657;28;20072;-64
2021/10/17 23:47:11;;;;;;;13.80;11.60;;;;;;;;;;10305478;28;20060;-64
2021/10/17 23:52:09;;;;;;;15.27;11.27;;;;;;;;;;10305508;28;20173;-64
2021/10/17 23:57:07;;;;;;;11.07;9.98;;;;;;;;;;10316895;28;20068;-64
